Current Conditions
Mostly Cloudy
Conditions



Pressure
996.92 (hPa) - 29.44 (inHG)
Visibility

6.2 (miles) - 10.0 (km)
Temperature
16  °C
Temperature
11  °C
Dewpoint
72  %
 Humidity
Wind Speed
15  mph
13  kts
24  km/h
6.7  m/s
Wind Direction
N
45°
E
90°
135°
S
180°
225°
W
270°
315°
 200°

South South
West
Airport Data
EGVO
RAF Odiham
Metar :EGVO 090850Z AUTO 20013KT 9999 BKN014/// BKN021/// 16/11 Q0997
Sun 9th May 08:50 am
Raw Metar Info
Raw METAR is the most common format in the world for the transmission of observational weather data. It is highly standardized through the International Civil Aviation Organization (ICAO), which allows it to be understood throughout most of the world.
API Info
Data Provided by
https://www.checkwx.com/weather/EGVO

Aviation Weather providing METAR, TAF, AIRMET, SIGMET and OUTLOOK Weather Reports
© Info
CSS/SVG/PHP scripts were developed by weather34.com for use in the weather34 template © 2015-2021

Guide Info provided by Metar-Wikipedia